Fallon, NV

4:40 AM PST on March 02, 2015 (GMT -0800)
East Fallon | Change Station
CLOSE
Current Station
Personal Weather Station
Location: Fallon, NV
Elevation: 3980 ft
Nearby Weather Stations

Elev 3980 ft 39.48 °N, 118.77 °W | Updated 14 minutes ago

Partly Cloudy
Partly Cloudy
29.8 °F
Feels Like 30 °F
N
0.0
Wind Variable Wind from SSE

Today
High -- | Low -- °F
--% Chance of Precip.
Yesterday
High -- | Low -- °F
Precip. -- in
6:26 AM 5:48 PM
Waxing Gibbous, 91% visible
Pressure 29.73 in
Visibility 10.0 miles
Clouds Mostly Cloudy 4600 ft
Windchill 30 °F
Dew Point 29 °F
Humidity 98%
Rainfall 0.00 in
Snow Depth Not available.
UV 0 out of 12
Pollen 4.90 out of 12
Air Quality Not available.
Flu Activity Not available.
METAR KNFL 021156Z AUTO 15007KT 10SM BKN046 M01/M02 A2979 RMK AO2 SLP067 T10061017 10022 21022 56023

More Conditions Fewer Conditions

Pressure 29.73 in
Visibility 10.0 miles
Clouds Mostly Cloudy 4600 ft
Windchill 30 °F
Dew Point 29 °F
Humidity 98%
Rainfall 0.00 in
Snow Depth Not available.
UV 0 out of 12
Pollen 4.90 out of 12
Air Quality Not available.
Flu Activity Not available.
METAR KNFL 021156Z AUTO 15007KT 10SM BKN046 M01/M02 A2979 RMK AO2 SLP067 T10061017 10022 21022 56023

More Conditions Fewer Conditions

10-Day Weather Forecast

Almanac

Astronomy

Mar. 02, 2015 Rise Set
Actual Time
Civil Twilight
Nautical Twilight
Astronomical Twilight
Moon
Length of Visible Light
Length of Day
Tomorrow will be .
, % of the Moon is Illuminated

Today's Extremes

State Highs State Lows

Community

WunderPhotos

Upload Photos

1,801,772 photos uploaded!

WunderBlogs® & News

Nearby

Air Quality

  Air Quality AQ Index Pollutant
Not available.

Snow Depth

Station Depth Elevation

Earthquake Activity

City Distance Mag. Time & Date
Minimum magnitude displayed is 2.5.

Coastal Water Temperatures

Place Temperature

Nearby Weather Stations